Time;durP1;ratioP1;P1;durP2;ratioP2;P2;SDS_P1;SDS_P2;PMS_P1;PMS_P2;Temp;Humidity;BMP_temperature;BMP_pressure;BME280_temperature;BME280_humidity;BME280_pressure;Samples;Min_cycle;Max_cycle;Signal;HPM_P1;HPM_P2
2023/04/25 00:02:10;;;;;;;1999.90;999.90;;;8.50;99.90;;;;;;4895710;29;20136;-82
2023/04/25 00:04:37;;;;;;;1999.90;999.90;;;8.40;99.90;;;;;;4897428;29;20079;-80
2023/04/25 00:07:03;;;;;;;1999.90;999.90;;;9.90;99.90;;;;;;4895991;29;20048;-80
2023/04/25 00:09:29;;;;;;;1999.90;999.90;;;9.70;99.90;;;;;;4896845;29;20049;-80
2023/04/25 00:11:55;;;;;;;1999.90;999.90;;;8.40;99.90;;;;;;4896845;29;20131;-80
2023/04/25 00:14:22;;;;;;;1999.90;999.90;;;8.60;99.90;;;;;;4896611;29;20108;-80
2023/04/25 00:16:48;;;;;;;1999.90;999.90;;;8.00;99.90;;;;;;4895339;29;20048;-80
2023/04/25 00:19:14;;;;;;;1999.90;999.90;;;8.10;99.90;;;;;;4896928;29;20045;-80
2023/04/25 00:21:42;;;;;;;1999.90;999.90;;;9.40;99.90;;;;;;4897072;29;20096;-80
2023/04/25 00:24:08;;;;;;;1999.90;999.90;;;8.40;99.90;;;;;;4896351;29;20131;-80
2023/04/25 00:26:35;;;;;;;1999.90;999.90;;;8.50;99.90;;;;;;4878051;29;20476;-80
2023/04/25 00:29:01;;;;;;;1999.90;999.90;;;8.20;99.90;;;;;;4877229;29;20053;-80
2023/04/25 00:31:28;;;;;;;1999.90;999.90;;;7.70;99.90;;;;;;4878058;29;20430;-81
2023/04/25 00:33:54;;;;;;;1999.90;999.90;;;9.10;99.90;;;;;;4879309;29;20124;-80
2023/04/25 00:36:20;;;;;;;1999.90;999.90;;;8.70;99.90;;;;;;4896611;29;20127;-81
2023/04/25 00:38:46;;;;;;;1999.90;999.90;;;8.30;99.90;;;;;;4895338;29;20055;-81
2023/04/25 00:41:12;;;;;;;1999.90;999.90;;;8.00;99.90;;;;;;4896866;29;20101;-81
2023/04/25 00:43:38;;;;;;;1999.90;999.90;;;9.00;99.90;;;;;;4895868;29;20059;-81
2023/04/25 00:46:04;;;;;;;1999.90;999.90;;;8.70;99.90;;;;;;4895369;29;20178;-81
2023/04/25 00:48:29;;;;;;;1999.90;999.90;;;7.90;99.90;;;;;;4899518;29;20172;-81
2023/04/25 00:50:58;;;;;;;1999.90;999.90;;;8.00;99.90;;;;;;4900311;29;20052;-81
2023/04/25 00:53:26;;;;;;;1999.90;999.90;;;8.30;99.90;;;;;;4897835;29;20053;-81
2023/04/25 00:55:52;;;;;;;;;;;8.00;99.90;;;;;;4900404;29;20049;-80
2023/04/25 00:58:22;;;;;;;1699.90;537.28;;;7.50;99.90;;;;;;4899441;29;19933;-83
2023/04/25 01:00:49;;;;;;;1999.90;999.90;;;7.80;99.90;;;;;;4899690;29;20387;-80
2023/04/25 01:03:17;;;;;;;1999.90;999.90;;;8.30;99.90;;;;;;4899657;29;20049;-80
2023/04/25 01:05:43;;;;;;;1999.90;999.90;;;8.10;99.90;;;;;;4898262;29;20121;-80
2023/04/25 01:08:09;;;;;;;1999.90;999.90;;;7.20;99.90;;;;;;4898595;29;20044;-80
2023/04/25 01:10:36;;;;;;;1789.05;766.72;;;8.40;99.90;;;;;;4899272;29;20127;-80
2023/04/25 01:13:02;;;;;;;1999.90;999.90;;;8.00;99.90;;;;;;4899335;29;20052;-79
2023/04/25 01:15:28;;;;;;;1999.90;999.90;;;7.40;99.90;;;;;;4899359;29;20442;-80
2023/04/25 01:17:55;;;;;;;1999.90;999.90;;;7.70;99.90;;;;;;4899293;29;20047;-79
2023/04/25 01:20:24;;;;;;;1999.90;999.90;;;6.80;99.90;;;;;;4899391;29;20520;-81
2023/04/25 01:22:54;;;;;;;1343.80;293.05;;;7.20;99.90;;;;;;4897619;29;20104;-79
2023/04/25 01:25:21;;;;;;;1999.90;999.90;;;7.90;99.90;;;;;;4899187;29;20044;-80
2023/04/25 01:27:47;;;;;;;1999.90;999.90;;;9.00;99.90;;;;;;4897891;29;20170;-79
2023/04/25 01:30:13;;;;;;;1999.90;999.90;;;7.70;99.90;;;;;;4898431;29;20048;-79
2023/04/25 01:32:40;;;;;;;1999.90;999.90;;;7.60;99.90;;;;;;4898769;29;20127;-79
2023/04/25 01:35:10;;;;;;;1999.90;999.90;;;7.00;99.90;;;;;;4898086;29;20127;-80
2023/04/25 01:37:45;;;;;;;1999.90;999.90;;;7.20;99.90;;;;;;4898043;29;20451;-79
2023/04/25 01:40:11;;;;;;;1999.90;999.90;;;6.70;99.90;;;;;;4899293;29;20044;-79
2023/04/25 01:42:41;;;;;;;1999.90;999.90;;;7.70;99.90;;;;;;4882008;29;20088;-79
2023/04/25 01:45:08;;;;;;;1999.90;999.90;;;7.70;99.90;;;;;;4899041;29;20528;-79
2023/04/25 01:47:35;;;;;;;1999.90;999.90;;;6.80;99.90;;;;;;4898076;29;20063;-79
2023/04/25 01:50:01;;;;;;;1999.90;999.90;;;7.70;99.90;;;;;;4899001;29;20048;-79
2023/04/25 01:52:27;;;;;;;1999.90;999.90;;;7.60;99.90;;;;;;4897255;29;20494;-79
2023/04/25 01:54:54;;;;;;;1999.90;999.90;;;8.90;99.90;;;;;;4898035;29;20192;-79
2023/04/25 01:57:19;;;;;;;1999.90;999.90;;;7.10;99.90;;;;;;4898292;29;20410;-78
2023/04/25 01:59:46;;;;;;;1999.90;999.90;;;7.10;99.90;;;;;;4897457;29;20052;-79
2023/04/25 02:02:11;;;;;;;1999.90;999.90;;;7.30;99.90;;;;;;4897559;29;20545;-79
2023/04/25 02:04:37;;;;;;;1999.90;999.90;;;6.40;99.90;;;;;;4898074;29;20056;-79
2023/04/25 02:07:03;;;;;;;1999.90;999.90;;;7.50;99.90;;;;;;4897914;29;20502;-81
2023/04/25 02:09:29;;;;;;;1999.90;999.90;;;7.60;99.90;;;;;;4898197;29;20059;-79
2023/04/25 02:11:55;;;;;;;1999.90;999.90;;;7.60;99.90;;;;;;4898400;29;20052;-78
2023/04/25 02:14:20;;;;;;;1999.90;999.90;;;7.80;99.90;;;;;;4897889;29;20052;-79
2023/04/25 02:16:46;;;;;;;1999.90;999.90;;;7.90;99.90;;;;;;4898166;29;20490;-79
2023/04/25 02:19:12;;;;;;;1999.90;999.90;;;7.70;99.90;;;;;;4898556;29;20075;-78
2023/04/25 02:21:38;;;;;;;1999.90;999.90;;;10.20;99.90;;;;;;4897061;29;20493;-78
2023/04/25 02:24:04;;;;;;;1999.90;999.90;;;6.90;99.90;;;;;;4897654;29;20486;-78
2023/04/25 02:26:30;;;;;;;1999.90;999.90;;;7.60;99.90;;;;;;4897567;29;20088;-79
2023/04/25 02:28:58;;;;;;;1999.90;999.90;;;8.10;99.90;;;;;;4898114;29;20493;-79
2023/04/25 02:31:24;;;;;;;1999.90;999.90;;;7.70;99.90;;;;;;4898002;29;20115;-78
2023/04/25 02:33:50;;;;;;;1999.90;999.90;;;7.00;99.90;;;;;;4897571;29;20135;-78
2023/04/25 02:36:16;;;;;;;1999.90;999.90;;;7.60;99.90;;;;;;4898214;29;20049;-78
2023/04/25 02:38:41;;;;;;;1999.90;999.90;;;7.40;99.90;;;;;;4864700;29;20048;-78
2023/04/25 02:41:07;;;;;;;1999.90;999.90;;;8.60;99.90;;;;;;4898481;29;20262;-78
2023/04/25 02:43:33;;;;;;;1999.90;999.90;;;7.20;99.90;;;;;;4897226;29;20053;-78
2023/04/25 02:46:00;;;;;;;1999.90;999.90;;;7.60;99.90;;;;;;4897764;29;20501;-78
2023/04/25 02:48:25;;;;;;;1999.90;999.90;;;6.90;99.90;;;;;;4897599;29;20092;-78
2023/04/25 02:50:51;;;;;;;1999.90;999.90;;;7.60;99.90;;;;;;4896590;29;20883;-78
2023/04/25 02:53:17;;;;;;;1999.90;999.90;;;7.20;99.90;;;;;;4896953;29;20045;-78
2023/04/25 02:55:42;;;;;;;1999.90;999.90;;;9.10;99.90;;;;;;4897592;29;20052;-77
2023/04/25 02:58:08;;;;;;;1999.90;999.90;;;7.60;99.90;;;;;;4880810;29;20059;-78
2023/04/25 03:00:34;;;;;;;1999.90;999.90;;;5.10;99.90;;;;;;4897288;29;20049;-78
2023/04/25 03:02:59;;;;;;;1999.90;999.90;;;7.10;99.90;;;;;;4897578;29;20504;-79
2023/04/25 03:05:25;;;;;;;1999.90;999.90;;;7.50;99.90;;;;;;4896564;29;20071;-78
2023/04/25 03:07:51;;;;;;;1999.90;999.90;;;7.60;99.90;;;;;;4896305;29;20135;-77
2023/04/25 03:10:16;;;;;;;1999.90;999.90;;;7.40;99.90;;;;;;4897564;29;20052;-77
2023/04/25 03:12:42;;;;;;;1999.90;999.90;;;7.20;99.90;;;;;;4897069;29;20057;-77
2023/04/25 03:15:08;;;;;;;1999.90;999.90;;;7.30;99.90;;;;;;4897766;29;20052;-78
2023/04/25 03:17:34;;;;;;;1999.90;999.90;;;6.80;99.90;;;;;;4880854;29;20056;-77
2023/04/25 03:20:00;;;;;;;1999.90;999.90;;;8.10;99.90;;;;;;4896135;29;20052;-77
2023/04/25 03:22:26;;;;;;;1999.90;999.90;;;7.30;99.90;;;;;;4896260;29;20497;-77
2023/04/25 03:24:52;;;;;;;1999.90;999.90;;;7.10;99.90;;;;;;4892794;29;20145;-77
2023/04/25 03:27:17;;;;;;;1999.90;999.90;;;7.60;99.90;;;;;;4878351;29;20398;-77
2023/04/25 03:29:43;;;;;;;1999.90;999.90;;;8.60;99.90;;;;;;4878459;29;20394;-77
2023/04/25 03:32:09;;;;;;;1999.90;999.90;;;7.60;99.90;;;;;;4878634;29;20108;-77
2023/04/25 03:34:35;;;;;;;1999.90;999.90;;;8.20;99.90;;;;;;4883993;29;20048;-77
2023/04/25 03:37:00;;;;;;;1999.90;999.90;;;7.00;99.90;;;;;;4895964;29;20155;-78
2023/04/25 03:39:26;;;;;;;1999.90;999.90;;;7.30;99.90;;;;;;4895915;29;20156;-77
2023/04/25 03:41:52;;;;;;;1999.90;999.90;;;7.60;99.90;;;;;;4896726;29;20056;-77
2023/04/25 03:44:17;;;;;;;1999.90;999.90;;;8.20;99.90;;;;;;4896982;29;20490;-76
2023/04/25 03:46:44;;;;;;;1999.90;999.90;;;;;;;;;;4894717;29;20055;-77
2023/04/25 03:49:09;;;;;;;1999.90;999.90;;;7.10;99.90;;;;;;4896135;29;20446;-76
2023/04/25 03:51:35;;;;;;;1999.90;999.90;;;7.10;99.90;;;;;;4895909;29;20049;-77
2023/04/25 03:54:01;;;;;;;1999.90;999.90;;;7.00;99.90;;;;;;4895899;29;20060;-77
2023/04/25 03:56:26;;;;;;;1999.90;999.90;;;7.50;99.90;;;;;;4896255;29;20045;-77
2023/04/25 03:58:52;;;;;;;1999.90;999.90;;;7.10;99.90;;;;;;4896537;29;20165;-77
2023/04/25 04:01:18;;;;;;;1565.28;532.22;;;7.50;99.90;;;;;;4896965;29;20128;-76
2023/04/25 04:03:43;;;;;;;1999.90;999.90;;;7.00;99.90;;;;;;4880111;29;20073;-77
2023/04/25 04:06:10;;;;;;;1999.90;999.90;;;7.00;99.90;;;;;;4895920;29;20482;-76
2023/04/25 04:08:36;;;;;;;1999.90;999.90;;;6.90;99.90;;;;;;4896071;29;20044;-77
2023/04/25 04:11:02;;;;;;;1999.90;999.90;;;6.40;99.90;;;;;;4895567;29;20053;-77
2023/04/25 04:13:28;;;;;;;1999.90;999.90;;;7.10;99.90;;;;;;4895607;29;20052;-76
2023/04/25 04:15:55;;;;;;;1999.90;999.90;;;7.90;99.90;;;;;;4879794;29;20497;-76
2023/04/25 04:18:21;;;;;;;1999.90;999.90;;;6.10;99.90;;;;;;4896885;29;20048;-77
2023/04/25 04:20:47;;;;;;;1999.90;999.90;;;6.90;99.90;;;;;;4895326;29;20056;-76
2023/04/25 04:23:13;;;;;;;1999.90;999.90;;;6.00;99.90;;;;;;4899249;29;20052;-76
2023/04/25 04:25:40;;;;;;;1999.90;999.90;;;5.90;99.90;;;;;;4889127;29;20053;-77
2023/04/25 04:28:06;;;;;;;1999.90;999.90;;;6.50;99.90;;;;;;4879920;29;20053;-77
2023/04/25 04:30:36;;;;;;;1999.90;999.90;;;7.20;99.90;;;;;;4911613;29;20406;-76
2023/04/25 04:33:02;;;;;;;1999.90;999.90;;;6.10;99.90;;;;;;4911419;29;20061;-76
2023/04/25 04:35:28;;;;;;;1999.90;999.90;;;7.20;99.90;;;;;;4895068;29;20052;-76
2023/04/25 04:37:54;;;;;;;1999.90;999.90;;;7.20;99.90;;;;;;4898685;29;20482;-76
2023/04/25 04:40:21;;;;;;;1999.90;999.90;;;6.60;99.90;;;;;;4900133;29;20067;-76
2023/04/25 04:42:47;;;;;;;1999.90;999.90;;;6.00;99.90;;;;;;4899733;29;20052;-77
2023/04/25 04:45:14;;;;;;;1999.90;999.90;;;;;;;;;;4900239;29;20451;-76
2023/04/25 04:47:40;;;;;;;1999.90;999.90;;;6.20;99.90;;;;;;4898362;29;20053;-77
2023/04/25 04:50:10;;;;;;;1999.90;999.90;;;6.40;99.90;;;;;;4899801;29;20052;-76
2023/04/25 04:52:37;;;;;;;1999.90;999.90;;;6.50;99.90;;;;;;4897930;29;20049;-76
2023/04/25 04:55:03;;;;;;;1999.90;999.90;;;8.00;99.90;;;;;;4898554;29;20494;-75
2023/04/25 04:57:29;;;;;;;1999.90;999.90;;;5.80;99.90;;;;;;4898572;29;20092;-77
2023/04/25 04:59:55;;;;;;;1999.90;999.90;;;6.70;99.90;;;;;;4898599;29;20045;-75
2023/04/25 05:02:21;;;;;;;1999.90;999.90;;;5.90;99.90;;;;;;4898628;29;20052;-75
2023/04/25 05:04:46;;;;;;;1999.90;999.90;;;6.40;99.90;;;;;;4898591;29;20052;-76
2023/04/25 05:07:12;;;;;;;1999.90;999.90;;;6.90;99.90;;;;;;4899111;29;20143;-76
2023/04/25 05:09:38;;;;;;;1999.90;999.90;;;5.70;99.90;;;;;;4899781;29;20112;-75
2023/04/25 05:12:04;;;;;;;1999.90;999.90;;;6.80;99.90;;;;;;4899035;29;20402;-75
2023/04/25 05:14:30;;;;;;;1999.90;999.90;;;6.10;99.90;;;;;;4898586;29;20092;-76
2023/04/25 05:16:56;;;;;;;1999.90;999.90;;;5.10;99.90;;;;;;4898979;29;20076;-76
2023/04/25 05:19:21;;;;;;;1999.90;999.90;;;6.20;99.90;;;;;;4899868;29;20054;-77
2023/04/25 05:21:47;;;;;;;1999.90;999.90;;;6.30;99.90;;;;;;4898448;29;20056;-77
2023/04/25 05:24:13;;;;;;;1999.90;999.90;;;6.50;99.90;;;;;;4898240;29;20486;-76
2023/04/25 05:26:39;;;;;;;1999.90;999.90;;;5.90;99.90;;;;;;4881069;29;20486;-76
2023/04/25 05:29:05;;;;;;;1999.90;999.90;;;6.40;99.90;;;;;;4879176;29;20052;-76
2023/04/25 05:31:31;;;;;;;1999.90;999.90;;;6.80;99.90;;;;;;4879363;29;20410;-75
2023/04/25 05:33:57;;;;;;;1999.90;999.90;;;6.90;99.90;;;;;;4881308;29;20104;-75
2023/04/25 05:36:23;;;;;;;1999.90;999.90;;;6.90;99.90;;;;;;4899087;29;20446;-76
2023/04/25 05:38:49;;;;;;;1999.90;999.90;;;7.50;99.90;;;;;;4897559;29;20052;-77
2023/04/25 05:41:15;;;;;;;1999.90;999.90;;;7.30;99.90;;;;;;4899055;29;20044;-75
2023/04/25 05:43:45;;;;;;;1999.90;999.90;;;7.20;99.90;;;;;;4899028;29;20185;-75
2023/04/25 05:46:11;;;;;;;1999.90;999.90;;;7.40;99.90;;;;;;4898725;29;20414;-75
2023/04/25 05:48:37;;;;;;;1999.90;999.90;;;7.30;99.90;;;;;;4898739;29;20454;-75
2023/04/25 05:51:03;;;;;;;1999.90;999.90;;;7.50;99.90;;;;;;4898538;29;20192;-75
2023/04/25 05:53:29;;;;;;;1999.90;999.90;;;7.30;99.90;;;;;;4881477;29;20139;-74
2023/04/25 05:55:55;;;;;;;1999.90;999.90;;;9.80;99.90;;;;;;4898308;29;20053;-74
2023/04/25 05:58:21;;;;;;;1999.90;999.90;;;7.50;99.90;;;;;;4898634;29;20040;-74
2023/04/25 06:00:46;;;;;;;1999.90;999.90;;;7.60;99.90;;;;;;4898726;29;20084;-74
2023/04/25 06:03:14;;;;;;;1999.90;999.90;;;7.80;99.90;;;;;;4898156;29;20057;-74
2023/04/25 06:05:43;;;;;;;1222.05;511.40;;;7.60;99.90;;;;;;4897868;29;20064;-74
2023/04/25 06:08:10;;;;;;;1097.78;57.38;;;7.60;99.90;;;;;;4897125;29;20514;-74
2023/04/25 06:10:36;;;;;;;1999.90;999.90;;;8.20;99.90;;;;;;4898511;29;20398;-75
2023/04/25 06:13:02;;;;;;;1999.90;999.90;;;7.50;99.90;;;;;;4896933;29;20048;-74
2023/04/25 06:15:28;;;;;;;1999.90;999.90;;;7.40;99.90;;;;;;4898616;29;20045;-75
2023/04/25 06:17:54;;;;;;;1999.90;999.90;;;7.60;99.90;;;;;;4897592;29;20084;-75
2023/04/25 06:20:22;;;;;;;1999.90;999.90;;;7.40;99.90;;;;;;4897526;29;20394;-74
2023/04/25 06:22:49;;;;;;;1999.90;999.90;;;7.20;99.90;;;;;;4897485;29;20131;-74
2023/04/25 06:25:15;;;;;;;1637.60;537.65;;;8.40;99.90;;;;;;4890462;29;20047;-74
2023/04/25 06:27:41;;;;;;;1999.90;999.90;;;7.40;99.90;;;;;;4878059;29;20141;-74
2023/04/25 06:30:07;;;;;;;1999.90;999.90;;;7.40;99.90;;;;;;4879093;29;20124;-74
2023/04/25 06:32:34;;;;;;;1999.90;999.90;;;7.80;99.90;;;;;;4878355;29;20056;-74
2023/04/25 06:35:00;;;;;;;1999.90;999.90;;;8.50;99.90;;;;;;4887621;29;20048;-74
2023/04/25 06:37:26;;;;;;;1999.90;999.90;;;8.80;99.90;;;;;;4897087;29;20056;-74
2023/04/25 06:39:52;;;;;;;1999.90;999.90;;;8.60;99.90;;;;;;4896744;29;20179;-79
2023/04/25 06:42:17;;;;;;;1999.90;999.90;;;8.60;99.90;;;;;;4896526;29;20057;-74
2023/04/25 06:44:43;;;;;;;1999.90;999.90;;;8.70;99.90;;;;;;4897568;29;20402;-73
2023/04/25 06:47:09;;;;;;;1999.90;999.90;;;8.80;99.90;;;;;;4897223;29;20065;-74
2023/04/25 06:49:35;;;;;;;1999.90;999.90;;;8.70;99.90;;;;;;4897019;29;20061;-74
2023/04/25 06:52:00;;;;;;;1999.90;999.90;;;8.70;99.90;;;;;;4895325;29;20516;-73
2023/04/25 06:54:29;;;;;;;1999.90;999.90;;;8.70;99.90;;;;;;4897871;29;20521;-74
2023/04/25 06:56:55;;;;;;;1999.90;999.90;;;8.60;99.90;;;;;;4896926;29;20147;-74
2023/04/25 06:59:21;;;;;;;1999.90;999.90;;;8.50;99.90;;;;;;4897808;29;20100;-74
2023/04/25 07:01:47;;;;;;;1999.90;999.90;;;8.50;99.90;;;;;;4897517;29;20478;-73
2023/04/25 07:04:13;;;;;;;1999.90;999.90;;;8.70;99.90;;;;;;4896183;29;20052;-74
2023/04/25 07:06:42;;;;;;;1999.90;999.90;;;9.00;99.90;;;;;;4896455;29;20053;-73
2023/04/25 07:09:09;;;;;;;1999.90;999.90;;;9.30;99.90;;;;;;4896568;29;20063;-74
2023/04/25 07:11:35;;;;;;;1999.90;999.90;;;9.70;99.90;;;;;;4896691;29;20055;-74
2023/04/25 07:14:01;;;;;;;1999.90;999.90;;;9.90;99.90;;;;;;4897028;29;20044;-74
2023/04/25 07:16:27;;;;;;;1704.93;769.53;;;10.00;99.90;;;;;;4881180;29;20192;-74
2023/04/25 07:18:53;;;;;;;1524.65;99.00;;;9.90;99.90;;;;;;4897130;29;20123;-74
2023/04/25 07:21:19;;;;;;;1999.90;999.90;;;9.80;99.90;;;;;;4896925;29;20044;-74
2023/04/25 07:23:45;;;;;;;1999.90;999.90;;;9.50;99.90;;;;;;4896434;29;20048;-73
2023/04/25 07:26:10;;;;;;;1999.90;999.90;;;9.90;99.90;;;;;;4881446;29;20048;-74
2023/04/25 07:28:36;;;;;;;1999.90;999.90;;;9.90;99.90;;;;;;4877249;29;20045;-74
2023/04/25 07:31:02;;;;;;;1999.90;999.90;;;10.30;99.90;;;;;;4877113;29;20403;-73
2023/04/25 07:33:28;;;;;;;1761.13;769.75;;;10.50;99.90;;;;;;4877569;29;20120;-73
2023/04/25 07:35:54;;;;;;;1999.90;999.90;;;10.80;99.90;;;;;;4895135;29;20052;-74
2023/04/25 07:38:20;;;;;;;1759.57;767.40;;;11.30;99.90;;;;;;4879470;29;20063;-73
2023/04/25 07:40:47;;;;;;;1999.90;999.90;;;11.70;99.90;;;;;;4880519;29;20052;-74
2023/04/25 07:43:16;;;;;;;1238.53;385.63;;;11.50;1.00;;;;;;4896665;29;20062;-74
2023/04/25 07:45:42;;;;;;;1999.90;999.90;;;11.50;1.00;;;;;;4897087;29;20289;-73
2023/04/25 07:48:08;;;;;;;1999.90;999.90;;;11.50;99.90;;;;;;4896424;29;20483;-73
2023/04/25 07:50:34;;;;;;;1999.90;999.90;;;11.70;1.00;;;;;;4895956;29;20060;-73
2023/04/25 07:52:59;;;;;;;1999.90;999.90;;;11.80;99.90;;;;;;4879627;29;20045;-74
2023/04/25 07:55:26;;;;;;;1999.90;999.90;;;11.70;1.30;;;;;;4897362;29;20091;-73
2023/04/25 07:57:51;;;;;;;1797.40;767.85;;;11.50;1.00;;;;;;4900722;29;20108;-74
2023/04/25 08:00:17;;;;;;;1999.90;999.90;;;11.20;1.00;;;;;;4900874;29;20048;-73
2023/04/25 08:02:43;;;;;;;1406.85;528.13;;;10.80;1.00;;;;;;4884100;29;20061;-73
2023/04/25 08:05:11;;;;;;;1999.90;999.90;;;10.40;99.90;;;;;;4899182;29;20081;-74
2023/04/25 08:07:38;;;;;;;;;;;10.30;99.90;;;;;;4900288;29;20049;-73
2023/04/25 08:10:05;;;;;;;1578.35;551.10;;;10.30;99.90;;;;;;4900357;29;19946;-73
2023/04/25 08:12:31;;;;;;;1999.90;999.90;;;10.20;99.90;;;;;;4900682;29;20052;-73
2023/04/25 08:14:57;;;;;;;1999.90;999.90;;;10.40;99.90;;;;;;4899477;29;20295;-73
2023/04/25 08:17:22;;;;;;;1337.00;92.28;;;10.30;99.90;;;;;;4868143;29;20040;-73
2023/04/25 08:19:48;;;;;;;1999.90;999.90;;;10.60;99.90;;;;;;4899291;29;20052;-73
2023/04/25 08:22:14;;;;;;;1999.90;999.90;;;11.10;99.90;;;;;;4898298;29;20057;-73
2023/04/25 08:24:41;;;;;;;1999.90;999.90;;;11.50;99.90;;;;;;4899532;29;20056;-73
2023/04/25 08:27:07;;;;;;;1999.90;999.90;;;11.70;99.90;;;;;;4899502;29;20410;-74
2023/04/25 08:29:33;;;;;;;1999.90;999.90;;;12.50;96.10;;;;;;4899574;29;20061;-73
2023/04/25 08:31:59;;;;;;;1999.90;999.90;;;13.70;92.10;;;;;;4899014;29;20099;-73
2023/04/25 08:34:25;;;;;;;1999.90;999.90;;;15.00;59.70;;;;;;4899562;29;20084;-74
2023/04/25 08:36:51;;;;;;;1999.90;999.90;;;16.00;24.10;;;;;;4899198;29;20048;-74
2023/04/25 08:39:17;;;;;;;1999.90;999.90;;;16.90;11.50;;;;;;4898811;29;20053;-73
2023/04/25 08:41:44;;;;;;;1999.90;373.30;;;17.70;1.00;;;;;;4899036;29;20062;-73
2023/04/25 08:44:14;;;;;;;1999.90;999.90;;;17.60;1.00;;;;;;4899630;29;20052;-74
2023/04/25 08:46:41;;;;;;;1999.90;999.90;;;17.10;1.00;;;;;;4898621;29;20057;-73
2023/04/25 08:49:11;;;;;;;1999.90;859.17;;;16.10;1.00;;;;;;4900256;29;20064;-73
2023/04/25 08:51:45;;;;;;;1999.90;996.30;;;15.10;1.00;;;;;;4900168;29;20041;-73
2023/04/25 08:54:12;;;;;;;1999.90;999.90;;;14.30;1.00;;;;;;4899343;29;20520;-72
2023/04/25 08:56:40;;;;;;;1999.90;999.90;;;13.70;1.00;;;;;;4900066;29;20044;-75
2023/04/25 08:59:07;;;;;;;1999.90;632.13;;;13.10;1.00;;;;;;4899761;29;20406;-73
2023/04/25 09:01:35;;;;;;;1999.90;999.90;;;12.90;3.10;;;;;;4899338;29;20092;-74
2023/04/25 09:04:01;;;;;;;1999.90;999.90;;;13.20;9.10;;;;;;4899762;29;20083;-73
2023/04/25 09:06:30;;;;;;;1999.90;999.90;;;13.70;14.80;;;;;;4899370;29;20585;-73
2023/04/25 09:09:05;;;;;;;1999.90;999.90;;;13.60;15.00;;;;;;4898213;29;20490;-73
2023/04/25 09:11:35;;;;;;;1999.90;999.90;;;12.90;22.60;;;;;;4899132;29;20252;-73
2023/04/25 09:14:30;;;;;;;1999.90;999.90;;;12.10;38.30;;;;;;4898534;29;20131;-75
2023/04/25 09:16:56;;;;;;;1999.90;999.90;;;11.60;54.50;;;;;;4886309;29;20120;-73
2023/04/25 09:19:30;;;;;;;1999.90;999.90;;;11.50;62.60;;;;;;4899219;29;20465;-73
2023/04/25 09:22:04;;;;;;;1999.90;999.90;;;11.50;60.60;;;;;;4898674;29;20518;-73
2023/04/25 09:24:37;;;;;;;1999.90;999.90;;;11.90;73.30;;;;;;4897263;29;20120;-73
2023/04/25 09:27:07;;;;;;;1999.90;999.90;;;12.80;75.00;;;;;;4880548;29;20080;-74
2023/04/25 09:29:38;;;;;;;1999.90;999.90;;;13.40;50.60;;;;;;4880456;29;20334;-73
2023/04/25 09:32:24;;;;;;;1999.90;999.90;;;14.00;49.00;;;;;;4879448;29;20108;-73
2023/04/25 09:34:52;;;;;;;1999.90;999.90;;;15.30;36.40;;;;;;4887574;29;20103;-74
2023/04/25 09:37:29;;;;;;;1999.90;999.90;;;16.60;9.60;;;;;;4897848;29;20138;-74
2023/04/25 09:40:02;;;;;;;1999.90;999.90;;;18.10;1.00;;;;;;4899502;29;20454;-74
2023/04/25 09:42:31;;;;;;;1999.90;999.90;;;19.30;1.00;;;;;;4898253;29;20052;-73
2023/04/25 09:44:57;;;;;;;1999.90;999.90;;;20.10;1.00;;;;;;4898951;29;20112;-75
2023/04/25 09:47:25;;;;;;;1999.90;997.88;;;21.00;1.00;;;;;;4898114;29;20120;-73
2023/04/25 09:49:51;;;;;;;1999.90;999.90;;;21.30;1.00;;;;;;4898906;29;20101;-73
2023/04/25 09:52:19;;;;;;;1999.90;792.92;;;22.00;1.00;;;;;;4897591;29;20053;-74
2023/04/25 09:54:45;;;;;;;;;;;21.50;1.00;;;;;;4899631;29;20087;-72
2023/04/25 09:57:13;;;;;;;1999.90;999.90;;;19.80;1.00;;;;;;4898850;29;19939;-74
2023/04/25 09:59:43;;;;;;;1999.90;999.90;;;17.00;1.00;;;;;;4898554;29;20421;-76
2023/04/25 10:02:10;;;;;;;1999.90;999.90;;;13.90;21.00;;;;;;4898341;29;20548;-77
2023/04/25 10:04:38;;;;;;;1999.90;999.90;;;12.20;99.90;;;;;;4897553;29;20060;-77
2023/04/25 10:07:07;;;;;;;;;;;11.30;99.90;;;;;;4897160;29;20049;-75
2023/04/25 10:09:35;;;;;;;1999.90;999.90;;;10.70;1.00;;;;;;4898471;29;19923;-76
2023/04/25 10:12:03;;;;;;;1999.90;717.17;;;10.60;99.90;;;;;;4897441;29;20139;-75
2023/04/25 10:14:31;;;;;;;1999.90;843.47;;;10.60;99.90;;;;;;4897242;29;20390;-75
2023/04/25 10:16:57;;;;;;;;;;;11.10;99.90;;;;;;4898785;29;20052;-76
2023/04/25 10:19:24;;;;;;;1999.90;999.90;;;12.20;1.00;;;;;;4897205;29;19946;-76
2023/04/25 10:22:30;;;;;;;1999.90;999.90;;;13.70;99.90;;;;;;4897676;29;20056;-75
2023/04/25 10:24:56;;;;;;;1999.90;999.90;;;15.30;99.90;;;;;;4891441;29;20063;-75
2023/04/25 10:27:22;;;;;;;1999.90;999.90;;;16.50;99.90;;;;;;4879072;29;20045;-75
2023/04/25 10:30:08;;;;;;;1999.90;999.90;;;17.30;95.10;;;;;;4879632;29;20056;-75
2023/04/25 10:32:35;;;;;;;1999.90;999.90;;;18.00;44.80;;;;;;4878807;29;20067;-76
2023/04/25 10:35:19;;;;;;;1999.90;999.90;;;18.10;6.00;;;;;;4888551;29;20053;-75
2023/04/25 10:38:10;;;;;;;1999.90;999.90;;;18.60;10.30;;;;;;4880286;29;20173;-75
2023/04/25 10:40:36;;;;;;;1999.90;999.90;;;19.50;1.00;;;;;;4898222;29;20123;-75
2023/04/25 10:43:34;;;;;;;1999.90;999.90;;;19.60;1.00;;;;;;4897648;29;20131;-75
2023/04/25 10:46:00;;;;;;;1999.90;999.90;;;19.30;1.00;;;;;;4898307;29;20052;-75
2023/04/25 10:48:27;;;;;;;1999.90;920.95;;;18.60;1.00;;;;;;4897150;29;20449;-75
2023/04/25 10:51:15;;;;;;;1999.90;999.90;;;18.70;1.00;;;;;;4897907;29;20136;-75
2023/04/25 10:53:41;;;;;;;1999.90;801.45;;;19.00;1.00;;;;;;4896761;29;20041;-74
2023/04/25 10:56:22;;;;;;;1999.90;999.90;;;18.20;1.00;;;;;;4897575;29;20374;-77
2023/04/25 10:58:49;;;;;;;1999.90;995.92;;;16.90;1.00;;;;;;4897358;29;20110;-74
2023/04/25 11:01:20;;;;;;;1999.90;846.90;;;15.90;1.00;;;;;;4881287;29;20052;-75
2023/04/25 11:03:47;;;;;;;1999.90;999.90;;;15.30;1.00;;;;;;4896837;29;20615;-75
2023/04/25 11:07:02;;;;;;;1999.90;962.03;;;15.00;1.00;;;;;;4881555;29;20488;-74
2023/04/25 11:09:27;;;;;;;1999.90;999.90;;;14.90;1.00;;;;;;4892315;29;20303;-75
2023/04/25 11:11:59;;;;;;;1999.90;872.25;;;15.60;1.00;;;;;;4897357;29;20389;-75
2023/04/25 11:14:25;;;;;;;1999.90;880.58;;;16.80;1.00;;;;;;4897653;29;20139;-75
2023/04/25 11:16:58;;;;;;;1999.90;685.75;;;17.40;1.00;;;;;;4897276;29;20044;-74
2023/04/25 11:19:25;;;;;;;1999.90;447.25;;;16.70;1.00;;;;;;4896551;29;20136;-75
2023/04/25 11:21:54;;;;;;;1999.90;999.90;;;15.50;1.00;;;;;;4894936;29;20052;-75
2023/04/25 11:24:26;;;;;;;1999.90;999.90;;;14.30;1.00;;;;;;4880892;29;20067;-74
2023/04/25 11:26:52;;;;;;;1999.90;999.90;;;13.20;6.20;;;;;;4895646;29;20056;-74
2023/04/25 11:29:18;;;;;;;1999.90;999.90;;;12.30;19.70;;;;;;4897293;29;20055;-74
2023/04/25 11:31:45;;;;;;;1999.90;999.90;;;12.00;68.60;;;;;;4895315;29;20053;-74
2023/04/25 11:34:11;;;;;;;1999.90;999.90;;;12.00;99.90;;;;;;4897251;29;20056;-74
2023/04/25 11:36:38;;;;;;;1999.90;999.90;;;12.30;99.90;;;;;;4896644;29;20060;-74
2023/04/25 11:39:05;;;;;;;1999.90;999.90;;;13.30;99.90;;;;;;4895251;29;20053;-74
2023/04/25 11:41:31;;;;;;;1999.90;999.90;;;14.50;86.20;;;;;;4896976;29;20683;-74
2023/04/25 11:43:57;;;;;;;1999.90;999.90;;;15.70;67.40;;;;;;4896664;29;20144;-74
2023/04/25 11:46:23;;;;;;;1999.90;999.90;;;16.00;16.40;;;;;;4895898;29;20048;-75
2023/04/25 11:48:50;;;;;;;1999.90;522.50;;;16.50;18.10;;;;;;4896192;29;20448;-75
2023/04/25 11:51:16;;;;;;;1999.90;999.90;;;17.20;1.00;;;;;;4897105;29;20055;-74
2023/04/25 11:53:44;;;;;;;1999.90;999.90;;;16.90;1.00;;;;;;4895949;29;20048;-74
2023/04/25 11:56:11;;;;;;;;;;;16.50;1.00;;;;;;4896750;29;20162;-74
2023/04/25 11:59:00;;;;;;;1999.90;999.90;;;15.70;1.00;;;;;;4896919;29;19951;-74
2023/04/25 12:01:30;;;;;;;1999.90;999.90;;;15.00;1.00;;;;;;4897025;29;20398;-74
2023/04/25 12:03:56;;;;;;;1999.90;999.90;;;14.80;1.00;;;;;;4895639;29;20092;-73
2023/04/25 12:06:27;;;;;;;1999.90;999.90;;;15.30;1.00;;;;;;4897423;29;20103;-75
2023/04/25 12:09:04;;;;;;;1999.90;999.90;;;15.50;1.00;;;;;;4895787;29;20052;-74
2023/04/25 12:11:41;;;;;;;1999.90;999.90;;;16.40;1.00;;;;;;4896964;29;20123;-74